createdAt,value
2023-03-29T00:00:14.666Z,7.04
2023-03-29T00:02:49.167Z,7.03
2023-03-29T00:05:23.234Z,6.98
2023-03-29T00:08:01.952Z,7.02
2023-03-29T00:10:34.423Z,7.03
2023-03-29T00:13:05.875Z,6.92
2023-03-29T00:15:36.839Z,7.00
2023-03-29T00:18:07.750Z,6.98
2023-03-29T00:20:45.867Z,6.99
2023-03-29T00:23:19.405Z,6.99
2023-03-29T00:25:49.944Z,7.01
2023-03-29T00:28:20.589Z,7.06
2023-03-29T00:30:52.346Z,7.04
2023-03-29T00:33:23.659Z,6.87
2023-03-29T00:35:56.361Z,7.01
2023-03-29T00:38:29.552Z,7.01
2023-03-29T00:41:00.343Z,7.06
2023-03-29T00:43:31.419Z,7.03
2023-03-29T00:46:04.085Z,7.04
2023-03-29T00:48:34.705Z,7.03
2023-03-29T00:51:10.360Z,7.01
2023-03-29T00:53:48.893Z,6.98
2023-03-29T00:56:24.890Z,7.00
2023-03-29T00:59:00.633Z,7.00
2023-03-29T01:01:38.302Z,7.02
2023-03-29T01:04:18.739Z,7.04
2023-03-29T01:06:57.019Z,7.03
2023-03-29T01:09:33.249Z,7.02
2023-03-29T01:12:08.477Z,6.99
2023-03-29T01:14:43.124Z,6.99
2023-03-29T01:17:16.236Z,6.99
2023-03-29T01:19:50.663Z,6.99
2023-03-29T01:22:31.194Z,6.97
2023-03-29T01:25:13.374Z,6.94
2023-03-29T01:27:54.316Z,6.90
2023-03-29T01:30:30.772Z,6.81
2023-03-29T01:33:06.466Z,6.85
2023-03-29T01:35:43.918Z,6.83
2023-03-29T01:38:21.019Z,6.82
2023-03-29T01:40:51.728Z,6.78
2023-03-29T01:43:31.720Z,6.82
2023-03-29T01:46:08.089Z,6.80
2023-03-29T01:48:46.017Z,6.79
2023-03-29T01:51:21.575Z,6.75
2023-03-29T01:54:00.336Z,6.70
2023-03-29T01:56:37.782Z,6.72
2023-03-29T01:59:15.481Z,6.68
2023-03-29T02:01:51.881Z,6.71
2023-03-29T02:04:29.227Z,6.71
2023-03-29T02:07:01.733Z,6.70
2023-03-29T02:09:33.213Z,6.73
2023-03-29T02:12:10.230Z,6.71
2023-03-29T02:14:43.480Z,6.68
2023-03-29T02:17:22.098Z,6.66
2023-03-29T02:19:58.358Z,6.65
2023-03-29T02:22:33.717Z,6.65
2023-03-29T02:25:07.528Z,6.57
2023-03-29T02:27:38.668Z,6.56
2023-03-29T02:30:14.751Z,6.51
2023-03-29T02:32:55.920Z,6.56
2023-03-29T02:35:34.867Z,6.55
2023-03-29T02:38:07.934Z,6.57
2023-03-29T02:40:42.283Z,6.53
2023-03-29T02:43:16.005Z,6.53
2023-03-29T02:45:50.346Z,6.58
2023-03-29T02:48:24.847Z,6.58
2023-03-29T02:50:59.711Z,6.47
2023-03-29T02:53:35.029Z,6.53
2023-03-29T02:56:06.344Z,6.43
2023-03-29T02:58:37.113Z,6.33
2023-03-29T03:01:11.429Z,6.30
2023-03-29T03:03:42.989Z,6.22
2023-03-29T03:06:14.174Z,6.24
2023-03-29T03:08:45.008Z,6.23
2023-03-29T03:11:15.566Z,6.27
2023-03-29T03:13:46.108Z,6.32
2023-03-29T03:16:19.718Z,6.36
2023-03-29T03:18:51.497Z,6.34
2023-03-29T03:21:22.391Z,6.38
2023-03-29T03:23:53.653Z,6.36
2023-03-29T03:26:30.288Z,6.34
2023-03-29T03:29:02.537Z,6.28
2023-03-29T03:31:55.845Z,6.30
2023-03-29T03:34:49.855Z,6.29
2023-03-29T03:37:20.509Z,6.25
2023-03-29T03:39:52.087Z,6.26
2023-03-29T03:42:23.064Z,6.32
2023-03-29T03:44:54.321Z,6.33
2023-03-29T03:47:54.173Z,6.33
2023-03-29T03:50:38.380Z,6.35
2023-03-29T03:53:10.657Z,6.27
2023-03-29T03:56:02.381Z,6.31
2023-03-29T03:58:38.233Z,6.21
2023-03-29T04:01:10.385Z,6.23
2023-03-29T04:03:49.939Z,6.17
2023-03-29T04:06:22.788Z,6.11
2023-03-29T04:09:25.916Z,6.13
2023-03-29T04:12:14.006Z,6.17
2023-03-29T04:14:47.629Z,6.19
2023-03-29T04:17:22.918Z,6.16
2023-03-29T04:20:11.852Z,6.16
2023-03-29T04:22:44.080Z,6.10
2023-03-29T04:25:14.713Z,6.09
2023-03-29T04:27:51.724Z,6.10
2023-03-29T04:30:34.053Z,6.12
2023-03-29T04:33:04.662Z,6.11
2023-03-29T04:35:39.079Z,6.03
2023-03-29T04:38:13.524Z,5.98
2023-03-29T04:40:45.254Z,5.97
2023-03-29T04:43:23.903Z,6.02
2023-03-29T04:46:10.425Z,5.98
2023-03-29T04:49:04.103Z,5.99
2023-03-29T04:51:41.661Z,5.99
2023-03-29T04:54:13.724Z,5.93
2023-03-29T04:57:02.833Z,6.04
2023-03-29T04:59:42.370Z,6.04
2023-03-29T05:02:37.061Z,6.04
2023-03-29T05:05:08.698Z,6.03
2023-03-29T05:07:42.897Z,6.06
2023-03-29T05:10:15.180Z,6.03
2023-03-29T05:12:47.174Z,6.07
2023-03-29T05:15:17.941Z,6.00
2023-03-29T05:17:49.074Z,6.01
2023-03-29T05:20:20.356Z,5.98
2023-03-29T05:22:54.967Z,5.97
2023-03-29T05:25:45.506Z,6.00
2023-03-29T05:28:16.318Z,6.02
2023-03-29T05:30:47.677Z,6.05
2023-03-29T05:33:24.771Z,6.05
2023-03-29T05:36:02.481Z,6.07
2023-03-29T05:38:37.192Z,6.21
2023-03-29T05:41:09.306Z,6.18
2023-03-29T05:43:43.127Z,6.20
2023-03-29T05:46:14.146Z,6.30
2023-03-29T05:48:51.981Z,6.38
2023-03-29T05:51:24.920Z,6.39
2023-03-29T05:54:01.735Z,6.37
2023-03-29T05:56:32.335Z,6.36
2023-03-29T05:59:03.468Z,6.31
2023-03-29T06:01:34.277Z,6.33
2023-03-29T06:04:09.289Z,6.41
2023-03-29T06:06:46.819Z,6.45
2023-03-29T06:09:20.251Z,6.50
2023-03-29T06:12:05.401Z,6.63
2023-03-29T06:14:43.093Z,6.59
2023-03-29T06:17:23.071Z,6.64
2023-03-29T06:19:53.700Z,6.72
2023-03-29T06:22:28.210Z,6.81
2023-03-29T06:25:01.938Z,6.83
2023-03-29T06:27:37.220Z,6.86
2023-03-29T06:30:09.961Z,7.07
2023-03-29T06:32:41.586Z,7.16
2023-03-29T06:35:22.963Z,7.02
2023-03-29T06:37:59.778Z,7.26
2023-03-29T06:40:40.890Z,7.44
2023-03-29T06:43:12.462Z,7.55
2023-03-29T06:46:12.357Z,7.56
2023-03-29T06:48:57.218Z,7.50
2023-03-29T06:51:33.801Z,7.64
2023-03-29T06:54:04.611Z,7.81
2023-03-29T06:56:39.851Z,8.05
2023-03-29T06:59:16.398Z,8.20
2023-03-29T07:02:12.733Z,8.22
2023-03-29T07:05:12.278Z,8.33
2023-03-29T07:08:05.002Z,8.41
2023-03-29T07:11:03.399Z,8.53
2023-03-29T07:13:43.286Z,8.55
2023-03-29T07:16:19.459Z,8.57
2023-03-29T07:19:12.665Z,8.62
2023-03-29T07:22:08.322Z,8.49
2023-03-29T07:24:49.571Z,8.42
2023-03-29T07:27:21.021Z,8.36
2023-03-29T07:29:57.152Z,8.31
2023-03-29T07:32:28.431Z,8.16
2023-03-29T07:35:08.310Z,8.19
2023-03-29T07:37:39.885Z,8.30
2023-03-29T07:40:16.357Z,8.24
2023-03-29T07:43:09.571Z,8.45
2023-03-29T07:45:47.373Z,8.55
2023-03-29T07:48:18.311Z,8.50
2023-03-29T07:50:53.838Z,8.46
2023-03-29T07:53:29.912Z,8.46
2023-03-29T07:56:02.586Z,8.52
2023-03-29T07:58:53.257Z,8.66
2023-03-29T08:01:26.963Z,8.76
2023-03-29T08:04:06.107Z,8.78
2023-03-29T08:06:55.501Z,8.85
2023-03-29T08:09:32.283Z,8.84
2023-03-29T08:12:02.907Z,8.84
2023-03-29T08:14:39.180Z,8.80
2023-03-29T08:17:22.973Z,8.85
2023-03-29T08:19:54.526Z,8.89
2023-03-29T08:22:27.305Z,9.04
2023-03-29T08:25:08.113Z,9.16
2023-03-29T08:27:47.700Z,9.31
2023-03-29T08:30:25.192Z,9.32
2023-03-29T08:32:58.647Z,9.43
2023-03-29T08:35:29.760Z,9.39
2023-03-29T08:38:14.463Z,9.33
2023-03-29T08:40:45.667Z,9.38
2023-03-29T08:43:50.561Z,9.39
2023-03-29T08:46:47.142Z,9.29
2023-03-29T08:49:29.850Z,9.32
2023-03-29T08:52:04.676Z,9.41
2023-03-29T08:54:40.363Z,9.49
2023-03-29T08:57:20.806Z,9.57
2023-03-29T08:59:58.459Z,9.65
2023-03-29T09:02:34.157Z,9.68
2023-03-29T09:05:23.529Z,9.72
2023-03-29T09:08:16.606Z,9.76
2023-03-29T09:10:50.995Z,9.70
2023-03-29T09:13:35.780Z,9.66
2023-03-29T09:16:15.793Z,9.62
2023-03-29T09:18:59.292Z,9.56
2023-03-29T09:21:46.968Z,9.50
2023-03-29T09:24:32.921Z,9.51
2023-03-29T09:27:13.008Z,9.49
2023-03-29T09:29:59.847Z,9.57
2023-03-29T09:32:54.690Z,9.65
2023-03-29T09:35:38.425Z,9.72
2023-03-29T09:38:15.452Z,9.69
2023-03-29T09:40:50.996Z,9.66
2023-03-29T09:43:32.782Z,9.69
2023-03-29T09:46:08.285Z,9.76
2023-03-29T09:48:42.789Z,9.77
2023-03-29T09:51:15.909Z,9.77
2023-03-29T09:53:49.880Z,9.61
2023-03-29T09:56:32.541Z,9.65
2023-03-29T09:59:15.608Z,9.82
2023-03-29T10:01:48.454Z,9.86
2023-03-29T10:04:22.419Z,9.78
2023-03-29T10:07:01.583Z,9.77
2023-03-29T10:09:36.221Z,9.72
2023-03-29T10:12:19.727Z,9.82
2023-03-29T10:14:54.012Z,9.78
2023-03-29T10:17:26.881Z,9.83
2023-03-29T10:20:03.071Z,9.84
2023-03-29T10:22:38.248Z,9.77
2023-03-29T10:25:17.284Z,9.75
2023-03-29T10:27:51.038Z,9.75
2023-03-29T10:30:28.693Z,9.63
2023-03-29T10:33:02.123Z,9.90
2023-03-29T10:35:37.615Z,10.03
2023-03-29T10:38:13.557Z,10.14
2023-03-29T10:40:51.925Z,10.23
2023-03-29T10:43:26.189Z,10.28
2023-03-29T10:45:57.963Z,10.35
2023-03-29T10:48:32.791Z,10.48
2023-03-29T10:51:05.921Z,10.74
2023-03-29T10:53:39.443Z,10.88
2023-03-29T10:56:35.195Z,11.25
2023-03-29T10:59:30.330Z,11.41
2023-03-29T11:02:42.577Z,11.42
2023-03-29T11:05:25.728Z,11.43
2023-03-29T11:08:12.776Z,11.34
2023-03-29T11:10:51.531Z,11.40
2023-03-29T11:13:31.815Z,11.55
2023-03-29T11:16:13.314Z,11.58
2023-03-29T11:19:18.503Z,11.78
2023-03-29T11:21:59.298Z,11.97
2023-03-29T11:24:38.956Z,12.18
2023-03-29T11:27:23.950Z,12.53
2023-03-29T11:30:08.810Z,12.54
2023-03-29T11:32:48.908Z,12.54
2023-03-29T11:35:45.186Z,12.60
2023-03-29T11:38:32.592Z,12.73
2023-03-29T11:41:11.637Z,12.83
2023-03-29T11:43:47.914Z,12.71
2023-03-29T11:46:28.579Z,12.56
2023-03-29T11:49:05.641Z,12.53
2023-03-29T11:51:41.488Z,12.73
2023-03-29T11:54:20.849Z,12.91
2023-03-29T11:56:58.648Z,12.90
2023-03-29T11:59:36.019Z,12.94
2023-03-29T12:02:19.797Z,13.05
2023-03-29T12:04:55.169Z,12.88
2023-03-29T12:07:33.668Z,12.72
2023-03-29T12:10:10.178Z,12.64
2023-03-29T12:12:48.444Z,12.59
2023-03-29T12:15:21.770Z,12.72
2023-03-29T12:18:27.490Z,12.75
2023-03-29T12:21:02.439Z,12.82
2023-03-29T12:23:36.435Z,12.81
2023-03-29T12:26:16.455Z,12.85
2023-03-29T12:29:12.224Z,12.80
2023-03-29T12:31:51.977Z,12.72
2023-03-29T12:34:41.898Z,12.74
2023-03-29T12:37:50.341Z,12.84
2023-03-29T12:41:05.376Z,12.91
2023-03-29T12:43:54.888Z,12.93
2023-03-29T12:46:39.256Z,12.90
2023-03-29T12:49:16.117Z,12.85
2023-03-29T12:51:49.859Z,12.76
2023-03-29T12:54:28.079Z,12.69
2023-03-29T12:57:02.531Z,12.69
2023-03-29T12:59:43.175Z,12.73
2023-03-29T13:02:39.600Z,12.80
2023-03-29T13:05:32.304Z,12.81
2023-03-29T13:08:20.240Z,12.78
2023-03-29T13:10:57.802Z,12.63
2023-03-29T13:13:32.634Z,12.52
2023-03-29T13:16:18.126Z,12.44
2023-03-29T13:19:09.553Z,12.34
2023-03-29T13:21:51.540Z,12.24
2023-03-29T13:24:45.114Z,12.05
2023-03-29T13:27:28.100Z,11.83
2023-03-29T13:30:26.234Z,11.72
2023-03-29T13:33:13.651Z,11.65
2023-03-29T13:35:52.114Z,11.52
2023-03-29T13:38:28.847Z,11.47
2023-03-29T13:41:07.552Z,11.69
2023-03-29T13:43:40.536Z,11.87
2023-03-29T13:46:25.266Z,12.03
2023-03-29T13:49:02.468Z,11.83
2023-03-29T13:51:45.148Z,12.23
2023-03-29T13:54:29.647Z,12.28
2023-03-29T13:57:04.892Z,12.23
2023-03-29T13:59:41.662Z,12.21
2023-03-29T14:02:19.778Z,12.16
2023-03-29T14:04:54.263Z,12.10
2023-03-29T14:07:27.272Z,12.12
2023-03-29T14:10:01.620Z,12.05
2023-03-29T14:12:41.849Z,11.90
2023-03-29T14:15:24.047Z,12.05
2023-03-29T14:18:00.655Z,12.12
2023-03-29T14:20:34.383Z,12.22
2023-03-29T14:23:13.331Z,12.27
2023-03-29T14:25:46.892Z,12.31
2023-03-29T14:28:29.072Z,12.37
2023-03-29T14:30:59.977Z,12.49
2023-03-29T14:33:34.641Z,12.60
2023-03-29T14:36:07.987Z,12.65
2023-03-29T14:38:39.703Z,12.58
2023-03-29T14:41:10.416Z,12.46
2023-03-29T14:43:44.091Z,12.39
2023-03-29T14:46:17.314Z,12.40
2023-03-29T14:48:48.657Z,12.53
2023-03-29T14:51:20.293Z,12.56
2023-03-29T14:53:52.100Z,12.48
2023-03-29T14:56:25.770Z,12.39
2023-03-29T14:59:00.396Z,12.40
2023-03-29T15:01:31.476Z,12.44
2023-03-29T15:04:08.144Z,12.40
2023-03-29T15:06:44.322Z,12.35
2023-03-29T15:09:19.782Z,12.33
2023-03-29T15:11:57.839Z,12.27
2023-03-29T15:14:34.482Z,12.17
2023-03-29T15:17:07.193Z,12.14
2023-03-29T15:19:39.482Z,12.20
2023-03-29T15:22:11.967Z,12.21
2023-03-29T15:24:47.497Z,12.20
2023-03-29T15:27:21.272Z,12.18
2023-03-29T15:30:03.104Z,12.15
2023-03-29T15:32:39.141Z,12.13
2023-03-29T15:35:12.445Z,12.14
2023-03-29T15:37:43.077Z,12.19
2023-03-29T15:40:18.302Z,12.19
2023-03-29T15:42:49.310Z,12.15
2023-03-29T15:45:26.063Z,12.15
2023-03-29T15:47:57.181Z,12.15
2023-03-29T15:50:27.881Z,12.20
2023-03-29T15:53:12.294Z,12.10
2023-03-29T15:55:49.034Z,12.07
2023-03-29T15:58:22.875Z,11.95
2023-03-29T16:01:02.919Z,11.99
2023-03-29T16:03:33.806Z,11.99
2023-03-29T16:06:04.795Z,11.99
2023-03-29T16:08:36.106Z,11.95
2023-03-29T16:11:07.680Z,11.86
2023-03-29T16:13:39.557Z,11.98
2023-03-29T16:16:17.459Z,11.96
2023-03-29T16:18:52.950Z,11.85
2023-03-29T16:21:26.683Z,11.88
2023-03-29T16:23:57.594Z,11.87
2023-03-29T16:26:30.506Z,11.83
2023-03-29T16:29:01.227Z,11.76
2023-03-29T16:31:36.675Z,11.76
2023-03-29T16:34:10.031Z,11.78
2023-03-29T16:36:41.699Z,11.79
2023-03-29T16:39:16.067Z,11.78
2023-03-29T16:41:51.502Z,11.73
2023-03-29T16:44:29.365Z,11.78
2023-03-29T16:47:03.253Z,11.77
2023-03-29T16:49:39.932Z,11.72
2023-03-29T16:52:11.751Z,11.69
2023-03-29T16:54:42.799Z,11.64
2023-03-29T16:57:13.828Z,11.60
2023-03-29T16:59:47.568Z,11.66
2023-03-29T17:02:21.104Z,11.65
2023-03-29T17:04:54.225Z,11.64
2023-03-29T17:07:27.293Z,11.62
2023-03-29T17:09:57.994Z,11.58
2023-03-29T17:12:32.985Z,11.56
2023-03-29T17:15:04.599Z,11.52
2023-03-29T17:17:38.261Z,11.49
2023-03-29T17:20:12.587Z,11.44
2023-03-29T17:22:43.307Z,11.43
2023-03-29T17:25:14.230Z,11.40
2023-03-29T17:27:45.639Z,11.42
2023-03-29T17:30:16.937Z,11.36
2023-03-29T17:32:50.256Z,11.38
2023-03-29T17:35:21.035Z,11.32
2023-03-29T17:37:51.753Z,11.29
2023-03-29T17:40:22.742Z,11.30
2023-03-29T17:42:53.574Z,11.32
2023-03-29T17:45:24.443Z,11.30
2023-03-29T17:47:57.674Z,11.29
2023-03-29T17:50:28.557Z,11.23
2023-03-29T17:52:59.242Z,11.27
2023-03-29T17:55:29.989Z,11.32
2023-03-29T17:58:00.653Z,11.30
2023-03-29T18:00:31.360Z,11.28
2023-03-29T18:03:04.690Z,11.27
2023-03-29T18:05:37.473Z,11.26
2023-03-29T18:08:10.926Z,11.29
2023-03-29T18:10:43.652Z,11.27
2023-03-29T18:13:16.531Z,11.12
2023-03-29T18:15:48.017Z,11.26
2023-03-29T18:18:24.950Z,11.27
2023-03-29T18:20:56.858Z,11.28
2023-03-29T18:23:27.809Z,11.29
2023-03-29T18:26:03.109Z,11.29
2023-03-29T18:28:34.008Z,11.24
2023-03-29T18:31:04.625Z,11.20
2023-03-29T18:33:38.286Z,11.20
2023-03-29T18:36:13.245Z,11.15
2023-03-29T18:38:44.604Z,11.18
2023-03-29T18:41:17.210Z,11.17
2023-03-29T18:43:47.912Z,11.18
2023-03-29T18:46:18.583Z,11.18
2023-03-29T18:48:53.967Z,11.16
2023-03-29T18:51:25.983Z,11.16
2023-03-29T18:53:56.958Z,11.16
2023-03-29T18:56:28.190Z,11.12
2023-03-29T18:58:59.017Z,11.07
2023-03-29T19:01:29.773Z,11.10
2023-03-29T19:04:03.348Z,11.14
2023-03-29T19:06:34.628Z,11.15
2023-03-29T19:09:05.608Z,11.07
2023-03-29T19:11:36.909Z,10.94
2023-03-29T19:14:09.455Z,11.07
2023-03-29T19:16:42.297Z,11.06
2023-03-29T19:19:16.234Z,11.08
2023-03-29T19:21:47.199Z,11.06
2023-03-29T19:24:17.957Z,11.02
2023-03-29T19:26:50.202Z,10.99
2023-03-29T19:29:21.101Z,11.00
2023-03-29T19:31:52.228Z,10.98
2023-03-29T19:34:28.022Z,10.94
2023-03-29T19:37:00.600Z,10.92
2023-03-29T19:39:31.377Z,10.77
2023-03-29T19:42:02.681Z,10.87
2023-03-29T19:44:33.864Z,10.86
2023-03-29T19:47:04.795Z,10.88
2023-03-29T19:49:39.320Z,10.90
2023-03-29T19:52:10.800Z,10.92
2023-03-29T19:54:42.677Z,10.95
2023-03-29T19:57:14.506Z,10.94
2023-03-29T19:59:46.892Z,10.93
2023-03-29T20:02:18.503Z,10.81
2023-03-29T20:04:53.436Z,10.89
2023-03-29T20:07:25.963Z,10.89
2023-03-29T20:09:58.561Z,10.88
2023-03-29T20:12:30.765Z,10.86
2023-03-29T20:15:03.059Z,10.80
2023-03-29T20:17:36.123Z,10.82
2023-03-29T20:20:14.868Z,10.75
2023-03-29T20:22:47.385Z,10.77
2023-03-29T20:25:19.799Z,10.78
2023-03-29T20:27:53.534Z,10.76
2023-03-29T20:30:26.104Z,10.66
2023-03-29T20:32:58.853Z,10.68
2023-03-29T20:35:32.270Z,10.67
2023-03-29T20:38:02.967Z,10.66
2023-03-29T20:40:34.616Z,10.72
2023-03-29T20:43:05.742Z,10.78
2023-03-29T20:45:51.623Z,10.82
2023-03-29T20:48:24.990Z,10.85
2023-03-29T20:50:58.364Z,10.85
2023-03-29T20:53:35.049Z,10.86
2023-03-29T20:56:06.670Z,10.88
2023-03-29T20:58:42.170Z,10.91
2023-03-29T21:01:14.476Z,10.91
2023-03-29T21:03:45.397Z,10.94
2023-03-29T21:06:19.439Z,10.96
2023-03-29T21:08:50.589Z,10.96
2023-03-29T21:11:22.170Z,10.96
2023-03-29T21:13:52.914Z,10.97
2023-03-29T21:16:25.396Z,10.97
2023-03-29T21:18:56.535Z,10.99
2023-03-29T21:21:30.727Z,10.97
2023-03-29T21:24:01.332Z,10.96
2023-03-29T21:26:31.927Z,10.86
2023-03-29T21:29:03.103Z,10.95
2023-03-29T21:31:33.739Z,10.94
2023-03-29T21:34:04.678Z,10.94
2023-03-29T21:36:38.413Z,10.93
2023-03-29T21:39:09.066Z,10.87
2023-03-29T21:41:41.573Z,10.91
2023-03-29T21:44:12.954Z,10.90
2023-03-29T21:46:43.611Z,10.90
2023-03-29T21:49:14.947Z,10.86
2023-03-29T21:51:48.272Z,10.79
2023-03-29T21:54:19.057Z,10.65
2023-03-29T21:56:50.796Z,10.57
2023-03-29T21:59:21.531Z,10.49
2023-03-29T22:01:52.292Z,10.42
2023-03-29T22:04:35.923Z,10.40
2023-03-29T22:07:11.008Z,10.41
2023-03-29T22:09:42.561Z,10.39
2023-03-29T22:12:13.244Z,10.32
2023-03-29T22:14:44.223Z,10.42
2023-03-29T22:17:16.308Z,10.51
2023-03-29T22:19:47.720Z,10.38
2023-03-29T22:22:21.900Z,10.52
2023-03-29T22:24:54.959Z,10.57
2023-03-29T22:27:26.138Z,10.56
2023-03-29T22:29:58.769Z,10.55
2023-03-29T22:32:31.979Z,10.52
2023-03-29T22:35:02.511Z,10.45
2023-03-29T22:37:36.140Z,10.41
2023-03-29T22:40:09.852Z,10.34
2023-03-29T22:42:40.413Z,10.34
2023-03-29T22:45:12.483Z,10.29
2023-03-29T22:47:43.183Z,10.28
2023-03-29T22:50:14.323Z,10.27
2023-03-29T22:52:47.425Z,10.26
2023-03-29T22:55:18.287Z,10.26
2023-03-29T22:57:48.918Z,10.27
2023-03-29T23:00:20.267Z,10.31
2023-03-29T23:02:50.943Z,10.30
2023-03-29T23:05:21.664Z,10.27
2023-03-29T23:07:56.016Z,10.27
2023-03-29T23:10:29.253Z,10.28
2023-03-29T23:13:08.703Z,10.21
2023-03-29T23:15:42.985Z,10.29
2023-03-29T23:18:18.515Z,10.27
2023-03-29T23:20:51.422Z,10.23
2023-03-29T23:23:26.093Z,10.20
2023-03-29T23:25:58.368Z,10.20
2023-03-29T23:28:31.554Z,10.16
2023-03-29T23:31:04.446Z,10.18
2023-03-29T23:33:38.826Z,10.17
2023-03-29T23:36:11.823Z,10.13
2023-03-29T23:38:48.005Z,10.10
2023-03-29T23:41:20.304Z,10.07
2023-03-29T23:43:52.398Z,10.07
2023-03-29T23:46:23.243Z,10.04
2023-03-29T23:48:54.355Z,10.05
2023-03-29T23:51:29.027Z,10.04
2023-03-29T23:54:02.392Z,10.02
2023-03-29T23:56:33.561Z,10.01
2023-03-29T23:59:04.696Z,9.99
